createdAt,value
2019-04-28T00:01:01.050Z,17.08
2019-04-28T00:03:31.981Z,17.09
2019-04-28T00:06:02.475Z,17.06
2019-04-28T00:08:32.940Z,17.01
2019-04-28T00:11:03.479Z,17.00
2019-04-28T00:13:33.949Z,16.94
2019-04-28T00:16:06.106Z,16.93
2019-04-28T00:18:36.897Z,16.86
2019-04-28T00:21:10.856Z,16.87
2019-04-28T00:23:42.668Z,16.86
2019-04-28T00:26:14.669Z,16.83
2019-04-28T00:28:45.165Z,16.79
2019-04-28T00:31:15.685Z,16.89
2019-04-28T00:33:46.423Z,16.83
2019-04-28T00:36:16.834Z,16.83
2019-04-28T00:38:47.310Z,16.92
2019-04-28T00:41:17.740Z,16.89
2019-04-28T00:43:48.239Z,16.95
2019-04-28T00:46:21.076Z,16.91
2019-04-28T00:48:51.639Z,16.94
2019-04-28T00:51:22.195Z,16.87
2019-04-28T00:53:52.717Z,16.85
2019-04-28T00:56:23.220Z,16.76
2019-04-28T00:58:53.826Z,16.72
2019-04-28T01:01:42.627Z,16.71
2019-04-28T01:04:13.158Z,16.69
2019-04-28T01:06:43.696Z,16.58
2019-04-28T01:09:14.172Z,16.62
2019-04-28T01:11:44.623Z,16.68
2019-04-28T01:14:15.137Z,16.71
2019-04-28T01:16:51.547Z,16.73
2019-04-28T01:19:30.149Z,16.70
2019-04-28T01:22:05.136Z,16.78
2019-04-28T01:24:35.616Z,16.62
2019-04-28T01:27:07.597Z,16.54
2019-04-28T01:29:37.976Z,16.35
2019-04-28T01:32:16.440Z,16.19
2019-04-28T01:34:46.870Z,16.19
2019-04-28T01:37:17.319Z,16.07
2019-04-28T01:39:49.514Z,16.09
2019-04-28T01:42:20.438Z,16.09
2019-04-28T01:44:50.762Z,16.08
2019-04-28T01:47:21.239Z,15.87
2019-04-28T01:49:51.671Z,15.79
2019-04-28T01:52:22.145Z,15.73
2019-04-28T01:54:52.683Z,15.57
2019-04-28T01:57:23.140Z,15.68
2019-04-28T01:59:53.601Z,15.77
2019-04-28T02:02:24.107Z,15.72
2019-04-28T02:04:54.554Z,15.81
2019-04-28T02:07:25.399Z,15.82
2019-04-28T02:09:55.843Z,15.81
2019-04-28T02:12:26.309Z,15.88
2019-04-28T02:14:56.801Z,15.91
2019-04-28T02:17:27.266Z,15.87
2019-04-28T02:20:00.676Z,15.91
2019-04-28T02:22:33.494Z,16.01
2019-04-28T02:25:04.705Z,16.02
2019-04-28T02:27:35.270Z,16.05
2019-04-28T02:30:11.479Z,16.11
2019-04-28T02:32:41.298Z,16.16
2019-04-28T02:35:11.772Z,16.18
2019-04-28T02:37:42.379Z,16.22
2019-04-28T02:40:12.917Z,16.18
2019-04-28T02:42:43.549Z,16.21
2019-04-28T02:45:16.929Z,16.22
2019-04-28T02:47:47.826Z,16.13
2019-04-28T02:50:33.166Z,16.08
2019-04-28T02:53:23.282Z,16.10
2019-04-28T02:55:53.720Z,16.09
2019-04-28T02:58:24.189Z,16.06
2019-04-28T03:01:06.699Z,15.98
2019-04-28T03:03:26.908Z,16.02
2019-04-28T03:05:57.347Z,16.01
2019-04-28T03:08:30.471Z,16.01
2019-04-28T03:11:00.969Z,15.98
2019-04-28T03:13:31.663Z,15.96
2019-04-28T03:16:02.229Z,15.97
2019-04-28T03:18:32.698Z,16.00
2019-04-28T03:21:04.399Z,15.93
2019-04-28T03:23:35.192Z,15.89
2019-04-28T03:26:11.222Z,15.82
2019-04-28T03:28:43.439Z,15.77
2019-04-28T03:31:59.051Z,15.77
2019-04-28T03:34:03.968Z,15.73
2019-04-28T03:36:33.422Z,15.77
2019-04-28T03:39:06.532Z,15.78
2019-04-28T03:41:36.981Z,15.75
2019-04-28T03:44:07.475Z,15.74
2019-04-28T03:46:42.196Z,15.81
2019-04-28T03:49:14.258Z,15.97
2019-04-28T03:51:44.710Z,16.06
2019-04-28T03:54:15.182Z,16.09
2019-04-28T03:56:45.697Z,16.20
2019-04-28T03:59:16.165Z,16.23
2019-04-28T04:01:56.511Z,16.27
2019-04-28T04:04:21.175Z,16.35
2019-04-28T04:06:51.008Z,16.33
2019-04-28T04:09:24.194Z,16.40
2019-04-28T04:12:11.210Z,16.45
2019-04-28T04:14:50.761Z,16.52
2019-04-28T04:17:30.504Z,16.62
2019-04-28T04:20:01.798Z,16.59
2019-04-28T04:22:32.390Z,16.71
2019-04-28T04:25:02.890Z,16.72
2019-04-28T04:27:33.306Z,16.69
2019-04-28T04:30:04.059Z,16.52
2019-04-28T04:32:34.512Z,16.49
2019-04-28T04:35:05.960Z,16.57
2019-04-28T04:37:36.388Z,16.73
2019-04-28T04:40:07.157Z,16.77
2019-04-28T04:42:40.005Z,16.91
2019-04-28T04:45:10.538Z,16.95
2019-04-28T04:47:41.169Z,17.17
2019-04-28T04:50:13.190Z,17.14
2019-04-28T04:52:43.737Z,17.20
2019-04-28T04:55:14.314Z,17.50
2019-04-28T04:57:44.746Z,17.46
2019-04-28T05:00:33.328Z,17.56
2019-04-28T05:03:05.352Z,17.39
2019-04-28T05:05:43.222Z,17.63
2019-04-28T05:08:15.519Z,17.55
2019-04-28T05:10:45.865Z,17.38
2019-04-28T05:13:16.298Z,17.43
2019-04-28T05:15:46.806Z,17.29
2019-04-28T05:18:17.243Z,17.13
2019-04-28T05:20:47.723Z,17.11
2019-04-28T05:23:19.733Z,17.02
2019-04-28T05:25:50.235Z,16.96
2019-04-28T05:28:20.693Z,16.93
2019-04-28T05:30:51.176Z,16.94
2019-04-28T05:33:32.065Z,17.04
2019-04-28T05:36:02.870Z,17.05
2019-04-28T05:38:32.020Z,17.05
2019-04-28T05:41:02.973Z,16.83
2019-04-28T05:43:33.339Z,16.91
2019-04-28T05:46:03.796Z,16.91
2019-04-28T05:48:44.968Z,16.90
2019-04-28T05:51:16.998Z,16.70
2019-04-28T05:53:53.796Z,16.78
2019-04-28T05:56:29.578Z,16.82
2019-04-28T05:59:01.678Z,16.69
2019-04-28T06:01:36.681Z,16.66
2019-04-28T06:04:07.121Z,16.57
2019-04-28T06:06:40.496Z,16.57
2019-04-28T06:09:12.579Z,16.53
2019-04-28T06:11:43.081Z,16.65
2019-04-28T06:14:13.543Z,16.56
2019-04-28T06:16:44.160Z,16.55
2019-04-28T06:19:14.608Z,16.53
2019-04-28T06:21:44.995Z,16.54
2019-04-28T06:24:15.365Z,16.43
2019-04-28T06:26:45.852Z,16.51
2019-04-28T06:29:16.295Z,16.75
2019-04-28T06:31:46.760Z,16.73
2019-04-28T06:34:17.181Z,16.70
2019-04-28T06:36:47.737Z,16.69
2019-04-28T06:39:18.083Z,16.56
2019-04-28T06:41:48.588Z,16.51
2019-04-28T06:44:19.021Z,16.37
2019-04-28T06:46:49.504Z,16.20
2019-04-28T06:49:19.952Z,16.12
2019-04-28T06:51:50.448Z,16.10
2019-04-28T06:54:20.986Z,15.85
2019-04-28T06:56:51.583Z,15.69
2019-04-28T06:59:22.041Z,15.56
2019-04-28T07:01:52.524Z,15.45
2019-04-28T07:04:22.985Z,15.37
2019-04-28T07:06:53.427Z,15.07
2019-04-28T07:09:23.950Z,15.09
2019-04-28T07:11:54.425Z,14.95
2019-04-28T07:14:24.975Z,14.95
2019-04-28T07:16:55.476Z,15.04
2019-04-28T07:19:25.904Z,15.12
2019-04-28T07:21:57.953Z,15.21
2019-04-28T07:24:28.513Z,15.35
2019-04-28T07:26:58.994Z,15.46
2019-04-28T07:29:29.460Z,15.69
2019-04-28T07:32:00.141Z,15.99
2019-04-28T07:34:30.668Z,16.17
2019-04-28T07:37:01.234Z,16.19
2019-04-28T07:39:31.658Z,16.42
2019-04-28T07:42:02.145Z,16.79
2019-04-28T07:44:32.582Z,16.91
2019-04-28T07:47:03.062Z,16.89
2019-04-28T07:49:33.462Z,17.19
2019-04-28T07:52:14.266Z,17.12
2019-04-28T07:54:44.726Z,17.32
2019-04-28T07:57:15.180Z,17.57
2019-04-28T07:59:45.597Z,17.87
2019-04-28T08:02:16.096Z,18.14
2019-04-28T08:04:46.542Z,18.27
2019-04-28T08:07:16.996Z,18.62
2019-04-28T08:09:47.520Z,18.85
2019-04-28T08:12:17.981Z,18.94
2019-04-28T08:14:48.420Z,18.97
2019-04-28T08:17:18.900Z,19.22
2019-04-28T08:19:49.313Z,19.39
2019-04-28T08:22:19.787Z,19.67
2019-04-28T08:24:50.236Z,19.52
2019-04-28T08:27:20.673Z,19.77
2019-04-28T08:29:58.275Z,19.97
2019-04-28T08:32:30.830Z,19.91
2019-04-28T08:35:01.257Z,19.88
2019-04-28T08:37:31.820Z,19.90
2019-04-28T08:40:02.238Z,20.16
2019-04-28T08:42:32.716Z,20.18
2019-04-28T08:45:03.148Z,20.05
2019-04-28T08:47:33.625Z,20.31
2019-04-28T08:50:04.340Z,20.24
2019-04-28T08:52:34.798Z,20.48
2019-04-28T08:55:06.519Z,20.65
2019-04-28T08:57:36.981Z,21.05
2019-04-28T09:00:10.443Z,21.35
2019-04-28T09:02:40.962Z,21.78
2019-04-28T09:05:11.502Z,21.53
2019-04-28T09:07:41.974Z,21.92
2019-04-28T09:10:12.493Z,22.23
2019-04-28T09:12:42.985Z,22.82
2019-04-28T09:15:13.335Z,22.86
2019-04-28T09:17:44.357Z,23.09
2019-04-28T09:20:14.792Z,23.14
2019-04-28T09:22:45.394Z,23.07
2019-04-28T09:25:15.856Z,22.40
2019-04-28T09:27:46.309Z,22.64
2019-04-28T09:30:16.844Z,22.53
2019-04-28T09:32:47.528Z,22.34
2019-04-28T09:35:17.940Z,22.48
2019-04-28T09:37:51.026Z,22.49
2019-04-28T09:40:21.440Z,22.55
2019-04-28T09:42:56.185Z,22.54
2019-04-28T09:45:33.929Z,22.48
2019-04-28T09:48:04.431Z,22.11
2019-04-28T09:50:34.843Z,22.24
2019-04-28T09:53:05.362Z,22.33
2019-04-28T09:55:35.809Z,22.13
2019-04-28T09:58:06.273Z,22.19
2019-04-28T10:00:38.375Z,22.17
2019-04-28T10:03:08.836Z,22.07
2019-04-28T10:05:39.284Z,22.07
2019-04-28T10:08:09.754Z,22.09
2019-04-28T10:10:40.105Z,22.05
2019-04-28T10:13:10.577Z,21.98
2019-04-28T10:15:41.026Z,21.95
2019-04-28T10:18:11.516Z,22.11
2019-04-28T10:20:41.890Z,22.23
2019-04-28T10:23:12.413Z,21.96
2019-04-28T10:25:42.843Z,22.03
2019-04-28T10:28:13.275Z,21.92
2019-04-28T10:30:43.700Z,21.87
2019-04-28T10:33:14.184Z,21.87
2019-04-28T10:35:44.616Z,21.99
2019-04-28T10:38:15.500Z,21.99
2019-04-28T10:40:50.471Z,22.14
2019-04-28T10:43:20.945Z,22.00
2019-04-28T10:45:51.866Z,22.14
2019-04-28T10:48:22.334Z,22.26
2019-04-28T10:50:52.762Z,22.22
2019-04-28T10:53:23.218Z,22.39
2019-04-28T10:55:53.646Z,22.43
2019-04-28T10:58:24.144Z,22.56
2019-04-28T11:00:54.550Z,22.96
2019-04-28T11:03:25.038Z,23.20
2019-04-28T11:05:55.474Z,23.42
2019-04-28T11:08:33.324Z,24.00
2019-04-28T11:11:05.316Z,23.87
2019-04-28T11:13:35.738Z,23.66
2019-04-28T11:16:06.297Z,23.36
2019-04-28T11:18:36.793Z,23.04
2019-04-28T11:21:07.221Z,22.44
2019-04-28T11:23:37.709Z,22.40
2019-04-28T11:26:08.160Z,22.35
2019-04-28T11:28:38.653Z,22.43
2019-04-28T11:31:09.095Z,22.36
2019-04-28T11:33:44.112Z,22.39
2019-04-28T11:36:16.347Z,22.32
2019-04-28T11:38:47.252Z,22.33
2019-04-28T11:41:17.688Z,22.49
2019-04-28T11:43:48.251Z,22.58
2019-04-28T11:46:20.290Z,22.77
2019-04-28T11:48:50.793Z,22.69
2019-04-28T11:51:21.267Z,22.97
2019-04-28T11:53:51.825Z,23.31
2019-04-28T11:56:22.365Z,23.50
2019-04-28T11:58:52.851Z,23.52
2019-04-28T12:01:23.743Z,23.37
2019-04-28T12:03:55.883Z,23.12
2019-04-28T12:06:26.372Z,23.20
2019-04-28T12:08:58.426Z,23.22
2019-04-28T12:11:36.225Z,23.39
2019-04-28T12:14:11.186Z,23.48
2019-04-28T12:16:55.204Z,23.45
2019-04-28T12:19:43.348Z,23.30
2019-04-28T12:22:13.782Z,23.51
2019-04-28T12:24:44.591Z,23.51
2019-04-28T12:27:15.031Z,23.45
2019-04-28T12:29:45.505Z,23.04
2019-04-28T12:32:15.934Z,23.23
2019-04-28T12:34:46.526Z,23.26
2019-04-28T12:37:16.940Z,23.44
2019-04-28T12:39:47.522Z,23.41
2019-04-28T12:42:17.867Z,23.09
2019-04-28T12:44:48.292Z,22.64
2019-04-28T12:47:18.718Z,22.45
2019-04-28T12:50:06.708Z,22.01
2019-04-28T12:52:37.157Z,21.92
2019-04-28T12:55:07.736Z,22.04
2019-04-28T12:57:38.156Z,22.04
2019-04-28T13:00:28.192Z,21.60
2019-04-28T13:03:18.275Z,21.47
2019-04-28T13:06:00.874Z,21.35
2019-04-28T13:08:22.501Z,21.32
2019-04-28T13:10:52.970Z,21.35
2019-04-28T13:13:23.429Z,21.47
2019-04-28T13:15:53.935Z,21.41
2019-04-28T13:18:24.382Z,21.11
2019-04-28T13:20:54.896Z,21.42
2019-04-28T13:23:25.348Z,21.31
2019-04-28T13:25:55.837Z,21.33
2019-04-28T13:28:26.264Z,21.31
2019-04-28T13:30:56.760Z,21.29
2019-04-28T13:33:27.160Z,21.23
2019-04-28T13:35:57.645Z,21.23
2019-04-28T13:38:28.435Z,21.11
2019-04-28T13:40:58.987Z,21.19
2019-04-28T13:43:29.420Z,21.11
2019-04-28T13:45:59.914Z,21.08
2019-04-28T13:48:30.321Z,21.07
2019-04-28T13:51:00.730Z,21.17
2019-04-28T13:53:31.184Z,21.18
2019-04-28T13:56:03.081Z,21.26
2019-04-28T13:58:34.493Z,21.05
2019-04-28T14:01:24.600Z,21.13
2019-04-28T14:04:12.727Z,21.21
2019-04-28T14:06:44.765Z,21.32
2019-04-28T14:09:16.309Z,21.35
2019-04-28T14:11:46.922Z,21.44
2019-04-28T14:14:17.456Z,21.50
2019-04-28T14:16:47.953Z,21.56
2019-04-28T14:19:18.367Z,21.78
2019-04-28T14:21:48.760Z,21.47
2019-04-28T14:24:19.374Z,21.53
2019-04-28T14:26:49.884Z,21.66
2019-04-28T14:29:20.219Z,21.68
2019-04-28T14:31:50.683Z,21.43
2019-04-28T14:34:21.263Z,20.99
2019-04-28T14:36:51.731Z,20.93
2019-04-28T14:39:22.172Z,20.82
2019-04-28T14:41:52.827Z,20.74
2019-04-28T14:44:23.164Z,20.91
2019-04-28T14:46:53.622Z,21.14
2019-04-28T14:49:24.034Z,21.28
2019-04-28T14:51:54.503Z,21.42
2019-04-28T14:54:25.046Z,21.63
2019-04-28T14:56:55.590Z,21.65
2019-04-28T14:59:25.938Z,21.71
2019-04-28T15:02:13.922Z,21.64
2019-04-28T15:05:01.063Z,21.70
2019-04-28T15:07:50.965Z,21.67
2019-04-28T15:10:28.484Z,21.73
2019-04-28T15:12:58.984Z,21.75
2019-04-28T15:15:29.474Z,21.75
2019-04-28T15:17:59.933Z,21.59
2019-04-28T15:20:30.883Z,21.61
2019-04-28T15:23:01.342Z,21.56
2019-04-28T15:25:31.798Z,21.50
2019-04-28T15:28:02.278Z,21.45
2019-04-28T15:30:32.727Z,21.66
2019-04-28T15:33:03.206Z,21.60
2019-04-28T15:35:33.621Z,21.41
2019-04-28T15:38:04.130Z,21.49
2019-04-28T15:40:34.779Z,21.33
2019-04-28T15:43:05.362Z,21.24
2019-04-28T15:45:35.818Z,21.17
2019-04-28T15:48:07.104Z,21.11
2019-04-28T15:50:37.521Z,21.13
2019-04-28T15:53:08.004Z,21.07
2019-04-28T15:55:40.320Z,21.04
2019-04-28T15:58:32.329Z,20.99
2019-04-28T16:01:02.935Z,20.81
2019-04-28T16:03:33.474Z,20.65
2019-04-28T16:06:04.212Z,20.56
2019-04-28T16:08:34.714Z,20.44
2019-04-28T16:11:05.140Z,20.50
2019-04-28T16:13:53.125Z,20.52
2019-04-28T16:16:40.090Z,20.44
2019-04-28T16:19:10.570Z,20.23
2019-04-28T16:21:40.987Z,20.14
2019-04-28T16:24:28.233Z,20.15
2019-04-28T16:26:58.592Z,20.07
2019-04-28T16:29:46.065Z,20.02
2019-04-28T16:32:16.513Z,19.91
2019-04-28T16:34:46.993Z,19.62
2019-04-28T16:37:17.418Z,19.51
2019-04-28T16:40:09.341Z,19.50
2019-04-28T16:43:00.381Z,19.41
2019-04-28T16:45:35.439Z,19.24
2019-04-28T16:48:23.581Z,18.89
2019-04-28T16:51:14.408Z,18.78
2019-04-28T16:53:43.347Z,18.61
2019-04-28T16:56:49.261Z,18.64
2019-04-28T16:59:21.281Z,18.58
2019-04-28T17:02:19.219Z,18.48
2019-04-28T17:05:08.410Z,18.34
2019-04-28T17:07:55.982Z,18.28
2019-04-28T17:10:26.501Z,18.32
2019-04-28T17:13:13.744Z,18.28
2019-04-28T17:16:00.960Z,18.16
2019-04-28T17:18:48.954Z,18.09
2019-04-28T17:21:19.624Z,18.05
2019-04-28T17:23:50.115Z,18.00
2019-04-28T17:26:37.379Z,17.95
2019-04-28T17:29:25.333Z,17.88
2019-04-28T17:32:12.459Z,17.81
2019-04-28T17:34:59.838Z,17.74
2019-04-28T17:37:47.527Z,17.77
2019-04-28T17:40:35.142Z,17.91
2019-04-28T17:43:05.886Z,17.79
2019-04-28T17:45:53.517Z,17.77
2019-04-28T17:48:31.321Z,17.78
2019-04-28T17:51:19.054Z,17.71
2019-04-28T17:54:06.544Z,17.69
2019-04-28T17:56:54.065Z,17.70
2019-04-28T17:59:41.686Z,17.70
2019-04-28T18:02:31.266Z,17.62
2019-04-28T18:05:09.385Z,17.51
2019-04-28T18:07:58.465Z,17.47
2019-04-28T18:10:28.916Z,17.50
2019-04-28T18:13:00.833Z,17.49
2019-04-28T18:15:55.975Z,17.44
2019-04-28T18:18:37.113Z,17.54
2019-04-28T18:21:07.553Z,17.52
2019-04-28T18:23:55.358Z,17.45
2019-04-28T18:26:42.596Z,17.40
2019-04-28T18:29:29.805Z,17.34
2019-04-28T18:32:01.820Z,17.31
2019-04-28T18:34:53.705Z,17.25
2019-04-28T18:37:42.013Z,17.24
2019-04-28T18:40:22.796Z,17.20
2019-04-28T18:43:11.904Z,17.19
2019-04-28T18:45:59.249Z,17.33
2019-04-28T18:48:46.544Z,17.23
2019-04-28T18:51:34.075Z,17.31
2019-04-28T18:54:21.617Z,17.17
2019-04-28T18:56:52.113Z,17.14
2019-04-28T18:59:39.584Z,17.19
2019-04-28T19:02:45.882Z,17.10
2019-04-28T19:05:35.006Z,16.97
2019-04-28T19:08:29.947Z,16.96
2019-04-28T19:11:18.875Z,16.90
2019-04-28T19:14:07.799Z,16.84
2019-04-28T19:16:55.870Z,16.91
2019-04-28T19:19:27.930Z,16.92
2019-04-28T19:21:58.359Z,16.96
2019-04-28T19:24:29.614Z,17.04
2019-04-28T19:27:00.011Z,17.14
2019-04-28T19:29:30.604Z,17.25
2019-04-28T19:32:01.100Z,17.25
2019-04-28T19:34:31.598Z,17.35
2019-04-28T19:37:02.162Z,17.45
2019-04-28T19:39:32.773Z,17.48
2019-04-28T19:42:03.355Z,17.60
2019-04-28T19:44:34.013Z,17.62
2019-04-28T19:47:04.557Z,17.64
2019-04-28T19:49:35.112Z,17.68
2019-04-28T19:52:05.641Z,17.71
2019-04-28T19:54:37.669Z,17.82
2019-04-28T19:57:21.803Z,17.89
2019-04-28T20:00:10.105Z,17.94
2019-04-28T20:02:40.696Z,17.99
2019-04-28T20:05:11.290Z,17.92
2019-04-28T20:07:41.804Z,17.87
2019-04-28T20:10:12.376Z,17.86
2019-04-28T20:12:42.867Z,17.82
2019-04-28T20:15:13.481Z,17.81
2019-04-28T20:17:44.080Z,17.75
2019-04-28T20:20:14.590Z,17.71
2019-04-28T20:22:45.048Z,17.69
2019-04-28T20:25:15.526Z,17.62
2019-04-28T20:27:46.197Z,17.51
2019-04-28T20:30:16.676Z,17.45
2019-04-28T20:32:47.274Z,17.48
2019-04-28T20:35:19.327Z,17.50
2019-04-28T20:37:57.380Z,17.48
2019-04-28T20:40:29.475Z,17.41
2019-04-28T20:43:04.580Z,17.42
2019-04-28T20:45:35.109Z,17.36
2019-04-28T20:48:05.598Z,17.37
2019-04-28T20:50:36.137Z,17.24
2019-04-28T20:53:06.678Z,17.25
2019-04-28T20:55:37.180Z,17.17
2019-04-28T20:58:07.723Z,17.20
2019-04-28T21:00:38.230Z,17.16
2019-04-28T21:03:08.707Z,17.13
2019-04-28T21:05:39.205Z,17.14
2019-04-28T21:08:09.652Z,17.14
2019-04-28T21:10:40.081Z,17.12
2019-04-28T21:13:10.530Z,17.11
2019-04-28T21:15:41.146Z,17.07
2019-04-28T21:18:11.616Z,17.07
2019-04-28T21:20:42.086Z,16.95
2019-04-28T21:23:12.516Z,16.95
2019-04-28T21:25:42.966Z,16.95
2019-04-28T21:28:13.310Z,16.96
2019-04-28T21:30:43.763Z,16.92
2019-04-28T21:33:14.222Z,16.94
2019-04-28T21:35:44.703Z,16.92
2019-04-28T21:38:15.143Z,16.93
2019-04-28T21:40:45.786Z,16.93
2019-04-28T21:43:20.766Z,16.89
2019-04-28T21:45:55.493Z,16.89
2019-04-28T21:48:33.516Z,16.93
2019-04-28T21:51:04.179Z,16.93
2019-04-28T21:53:34.632Z,16.87
2019-04-28T21:56:05.290Z,16.80
2019-04-28T21:58:35.741Z,16.75
2019-04-28T22:01:06.724Z,16.73
2019-04-28T22:03:37.162Z,16.71
2019-04-28T22:06:07.650Z,16.62
2019-04-28T22:08:38.082Z,16.65
2019-04-28T22:11:08.674Z,16.57
2019-04-28T22:13:39.043Z,16.57
2019-04-28T22:16:09.540Z,16.55
2019-04-28T22:18:39.970Z,16.51
2019-04-28T22:21:10.422Z,16.56
2019-04-28T22:23:42.465Z,16.55
2019-04-28T22:26:14.522Z,16.57
2019-04-28T22:28:44.966Z,16.59
2019-04-28T22:31:16.426Z,16.52
2019-04-28T22:33:46.896Z,16.51
2019-04-28T22:36:17.377Z,16.53
2019-04-28T22:38:47.815Z,16.58
2019-04-28T22:41:18.383Z,16.53
2019-04-28T22:43:48.907Z,16.47
2019-04-28T22:46:19.405Z,16.51
2019-04-28T22:48:49.839Z,16.49
2019-04-28T22:51:20.509Z,16.49
2019-04-28T22:53:50.969Z,16.44
2019-04-28T22:59:19.240Z,16.51
2019-04-28T23:02:07.592Z,16.44
2019-04-28T23:04:45.501Z,16.46
2019-04-28T23:07:15.936Z,16.56
2019-04-28T23:09:46.445Z,16.52
2019-04-28T23:12:16.898Z,16.41
2019-04-28T23:14:47.436Z,16.39
2019-04-28T23:17:19.255Z,16.27
2019-04-28T23:19:49.661Z,16.27
2019-04-28T23:22:21.672Z,16.17
2019-04-28T23:24:52.181Z,16.12
2019-04-28T23:27:22.654Z,16.08
2019-04-28T23:29:53.137Z,16.12
2019-04-28T23:32:23.575Z,16.10
2019-04-28T23:34:54.059Z,15.97
2019-04-28T23:37:24.510Z,16.00
2019-04-28T23:39:55.009Z,15.92
2019-04-28T23:42:27.026Z,15.91
2019-04-28T23:44:57.533Z,15.88
2019-04-28T23:47:28.078Z,15.77
2019-04-28T23:49:58.497Z,15.76
2019-04-28T23:52:33.390Z,15.64
2019-04-28T23:55:08.117Z,15.65
2019-04-28T23:57:38.604Z,15.62
